M85 weather

Gideon Memorial Airport
Gideon, Missouri, United States

Public forecast

Using degrees Fahrenheit for public forecast. Weather courtesy of forecast.io.

Closest aviation weather report (METAR) to Gideon Memorial Airport

Closest report is Kennett Memorial Airport, 14.6 nm (27.0 km) SSW. Retrieved 2020/05/26 09:35 UTC (4 minutes ago):

KTKX 260935Z AUTO 14008G14KT 10SM CLR 24/20 A2986 RMK AO2

Closest aviation forecast (TAF) to Gideon Memorial Airport

Closest forecast is Cape Girardeau Regional Airport, 49.6 nm (91.8 km) NNE. Retrieved 2020/05/26 06:22 UTC (3 hours ago):

TAF KCGI 260520Z 2606/2706 13008KT P6SM SCT100 FM260900 15009KT P6SM FEW250 FM261800 16012KT P6SM VCSH SCT035 BKN050 FM270000 14010KT P6SM SCT035 BKN090 FM270300 16008KT P6SM BKN080